sensor_id;sensor_type;location;lat;lon;timestamp;P1;durP1;ratioP1;P2;durP2;ratioP2
6135;SDS011;24008;42.664;23.372;2023-09-19T00:01:50;6.00;;;5.10;;
6135;SDS011;24008;42.664;23.372;2023-09-19T00:04:18;6.93;;;5.20;;
6135;SDS011;24008;42.664;23.372;2023-09-19T00:06:48;8.60;;;5.70;;
6135;SDS011;24008;42.664;23.372;2023-09-19T00:09:15;7.70;;;5.90;;
6135;SDS011;24008;42.664;23.372;2023-09-19T00:11:42;7.43;;;5.83;;
6135;SDS011;24008;42.664;23.372;2023-09-19T00:14:09;9.87;;;5.57;;
6135;SDS011;24008;42.664;23.372;2023-09-19T00:16:39;7.73;;;6.23;;
6135;SDS011;24008;42.664;23.372;2023-09-19T00:19:07;6.50;;;4.90;;
6135;SDS011;24008;42.664;23.372;2023-09-19T00:21:35;10.20;;;6.03;;
6135;SDS011;24008;42.664;23.372;2023-09-19T00:24:03;7.57;;;5.97;;
6135;SDS011;24008;42.664;23.372;2023-09-19T00:26:31;9.17;;;6.43;;
6135;SDS011;24008;42.664;23.372;2023-09-19T00:28:59;9.27;;;6.10;;
6135;SDS011;24008;42.664;23.372;2023-09-19T00:31:29;10.23;;;6.47;;
6135;SDS011;24008;42.664;23.372;2023-09-19T00:33:56;8.23;;;5.93;;
6135;SDS011;24008;42.664;23.372;2023-09-19T00:36:27;7.03;;;5.90;;
6135;SDS011;24008;42.664;23.372;2023-09-19T00:38:55;9.73;;;6.00;;
6135;SDS011;24008;42.664;23.372;2023-09-19T00:41:22;8.67;;;6.47;;
6135;SDS011;24008;42.664;23.372;2023-09-19T00:43:50;11.13;;;6.07;;
6135;SDS011;24008;42.664;23.372;2023-09-19T00:46:17;6.93;;;5.77;;
6135;SDS011;24008;42.664;23.372;2023-09-19T00:48:44;7.57;;;6.30;;
6135;SDS011;24008;42.664;23.372;2023-09-19T00:51:11;8.60;;;6.20;;
6135;SDS011;24008;42.664;23.372;2023-09-19T00:53:40;7.17;;;6.40;;
6135;SDS011;24008;42.664;23.372;2023-09-19T00:56:12;7.70;;;6.50;;
6135;SDS011;24008;42.664;23.372;2023-09-19T00:58:40;9.90;;;6.60;;
6135;SDS011;24008;42.664;23.372;2023-09-19T01:01:07;13.17;;;7.17;;
6135;SDS011;24008;42.664;23.372;2023-09-19T01:03:34;7.93;;;6.13;;
6135;SDS011;24008;42.664;23.372;2023-09-19T01:06:01;9.27;;;6.90;;
6135;SDS011;24008;42.664;23.372;2023-09-19T01:08:28;9.07;;;6.50;;
6135;SDS011;24008;42.664;23.372;2023-09-19T01:10:56;8.40;;;6.53;;
6135;SDS011;24008;42.664;23.372;2023-09-19T01:13:30;8.57;;;6.57;;
6135;SDS011;24008;42.664;23.372;2023-09-19T01:16:07;8.53;;;6.60;;
6135;SDS011;24008;42.664;23.372;2023-09-19T01:18:48;8.63;;;6.67;;
6135;SDS011;24008;42.664;23.372;2023-09-19T01:21:22;9.57;;;6.87;;
6135;SDS011;24008;42.664;23.372;2023-09-19T01:27:06;8.73;;;7.17;;
6135;SDS011;24008;42.664;23.372;2023-09-19T01:29:52;10.97;;;7.00;;
6135;SDS011;24008;42.664;23.372;2023-09-19T01:32:28;9.93;;;6.77;;
6135;SDS011;24008;42.664;23.372;2023-09-19T01:34:57;9.37;;;6.80;;
6135;SDS011;24008;42.664;23.372;2023-09-19T01:37:29;9.60;;;6.77;;
6135;SDS011;24008;42.664;23.372;2023-09-19T01:39:57;10.40;;;7.90;;
6135;SDS011;24008;42.664;23.372;2023-09-19T01:42:35;9.37;;;6.87;;
6135;SDS011;24008;42.664;23.372;2023-09-19T01:45:09;8.93;;;7.00;;
6135;SDS011;24008;42.664;23.372;2023-09-19T01:47:41;7.70;;;6.80;;
6135;SDS011;24008;42.664;23.372;2023-09-19T01:50:23;10.50;;;7.57;;
6135;SDS011;24008;42.664;23.372;2023-09-19T01:52:57;10.50;;;6.57;;
6135;SDS011;24008;42.664;23.372;2023-09-19T01:55:29;9.20;;;6.67;;
6135;SDS011;24008;42.664;23.372;2023-09-19T01:57:59;9.23;;;6.80;;
6135;SDS011;24008;42.664;23.372;2023-09-19T02:00:32;11.43;;;7.03;;
6135;SDS011;24008;42.664;23.372;2023-09-19T02:03:00;8.63;;;6.63;;
6135;SDS011;24008;42.664;23.372;2023-09-19T02:05:28;12.13;;;7.50;;
6135;SDS011;24008;42.664;23.372;2023-09-19T02:07:55;11.80;;;7.13;;
6135;SDS011;24008;42.664;23.372;2023-09-19T02:10:25;8.50;;;7.07;;
6135;SDS011;24008;42.664;23.372;2023-09-19T02:12:52;9.00;;;6.77;;
6135;SDS011;24008;42.664;23.372;2023-09-19T02:15:20;12.33;;;6.93;;
6135;SDS011;24008;42.664;23.372;2023-09-19T02:17:48;8.57;;;6.57;;
6135;SDS011;24008;42.664;23.372;2023-09-19T02:20:14;7.20;;;6.50;;
6135;SDS011;24008;42.664;23.372;2023-09-19T02:22:42;8.30;;;6.33;;
6135;SDS011;24008;42.664;23.372;2023-09-19T02:25:09;10.37;;;7.33;;
6135;SDS011;24008;42.664;23.372;2023-09-19T02:27:41;7.93;;;6.53;;
6135;SDS011;24008;42.664;23.372;2023-09-19T02:30:08;8.63;;;7.03;;
6135;SDS011;24008;42.664;23.372;2023-09-19T02:32:35;8.93;;;7.00;;
6135;SDS011;24008;42.664;23.372;2023-09-19T02:35:06;10.10;;;7.77;;
6135;SDS011;24008;42.664;23.372;2023-09-19T02:37:36;10.20;;;7.00;;
6135;SDS011;24008;42.664;23.372;2023-09-19T02:40:03;11.87;;;7.20;;
6135;SDS011;24008;42.664;23.372;2023-09-19T02:42:31;11.33;;;7.80;;
6135;SDS011;24008;42.664;23.372;2023-09-19T02:44:58;11.67;;;6.87;;
6135;SDS011;24008;42.664;23.372;2023-09-19T02:47:25;14.60;;;8.20;;
6135;SDS011;24008;42.664;23.372;2023-09-19T02:49:53;10.50;;;7.30;;
6135;SDS011;24008;42.664;23.372;2023-09-19T02:52:22;10.00;;;7.00;;
6135;SDS011;24008;42.664;23.372;2023-09-19T02:54:49;9.90;;;7.30;;
6135;SDS011;24008;42.664;23.372;2023-09-19T02:57:16;10.53;;;7.70;;
6135;SDS011;24008;42.664;23.372;2023-09-19T02:59:44;9.47;;;7.63;;
6135;SDS011;24008;42.664;23.372;2023-09-19T03:02:12;9.67;;;7.60;;
6135;SDS011;24008;42.664;23.372;2023-09-19T03:04:39;11.17;;;7.60;;
6135;SDS011;24008;42.664;23.372;2023-09-19T03:07:06;9.30;;;7.80;;
6135;SDS011;24008;42.664;23.372;2023-09-19T03:09:34;10.47;;;7.37;;
6135;SDS011;24008;42.664;23.372;2023-09-19T03:12:00;10.97;;;7.57;;
6135;SDS011;24008;42.664;23.372;2023-09-19T03:14:29;11.27;;;7.40;;
6135;SDS011;24008;42.664;23.372;2023-09-19T03:17:00;7.23;;;6.33;;
6135;SDS011;24008;42.664;23.372;2023-09-19T03:19:29;9.87;;;7.83;;
6135;SDS011;24008;42.664;23.372;2023-09-19T03:21:58;11.77;;;7.73;;
6135;SDS011;24008;42.664;23.372;2023-09-19T03:24:25;8.70;;;7.07;;
6135;SDS011;24008;42.664;23.372;2023-09-19T03:26:53;10.13;;;8.20;;
6135;SDS011;24008;42.664;23.372;2023-09-19T03:29:20;9.37;;;7.63;;
6135;SDS011;24008;42.664;23.372;2023-09-19T03:31:47;13.20;;;8.40;;
6135;SDS011;24008;42.664;23.372;2023-09-19T03:34:17;11.27;;;7.23;;
6135;SDS011;24008;42.664;23.372;2023-09-19T03:36:44;9.97;;;8.30;;
6135;SDS011;24008;42.664;23.372;2023-09-19T03:39:11;9.53;;;7.83;;
6135;SDS011;24008;42.664;23.372;2023-09-19T03:41:40;11.67;;;8.77;;
6135;SDS011;24008;42.664;23.372;2023-09-19T03:44:08;11.07;;;8.23;;
6135;SDS011;24008;42.664;23.372;2023-09-19T03:46:35;10.93;;;8.70;;
6135;SDS011;24008;42.664;23.372;2023-09-19T03:49:02;12.47;;;7.53;;
6135;SDS011;24008;42.664;23.372;2023-09-19T03:51:29;9.97;;;8.70;;
6135;SDS011;24008;42.664;23.372;2023-09-19T03:53:56;11.70;;;8.17;;
6135;SDS011;24008;42.664;23.372;2023-09-19T03:56:23;10.67;;;8.40;;
6135;SDS011;24008;42.664;23.372;2023-09-19T03:58:50;9.20;;;7.97;;
6135;SDS011;24008;42.664;23.372;2023-09-19T04:01:18;16.73;;;8.37;;
6135;SDS011;24008;42.664;23.372;2023-09-19T04:03:45;11.33;;;8.63;;
6135;SDS011;24008;42.664;23.372;2023-09-19T04:06:12;11.97;;;8.07;;
6135;SDS011;24008;42.664;23.372;2023-09-19T04:08:39;12.73;;;9.33;;
6135;SDS011;24008;42.664;23.372;2023-09-19T04:11:06;10.57;;;8.13;;
6135;SDS011;24008;42.664;23.372;2023-09-19T04:13:33;13.03;;;8.80;;
6135;SDS011;24008;42.664;23.372;2023-09-19T04:16:00;13.93;;;8.67;;
6135;SDS011;24008;42.664;23.372;2023-09-19T04:18:29;12.07;;;7.80;;
6135;SDS011;24008;42.664;23.372;2023-09-19T04:20:58;11.83;;;8.10;;
6135;SDS011;24008;42.664;23.372;2023-09-19T04:23:26;12.77;;;8.60;;
6135;SDS011;24008;42.664;23.372;2023-09-19T04:25:53;11.13;;;8.57;;
6135;SDS011;24008;42.664;23.372;2023-09-19T04:28:20;10.53;;;8.37;;
6135;SDS011;24008;42.664;23.372;2023-09-19T04:30:47;9.30;;;7.63;;
6135;SDS011;24008;42.664;23.372;2023-09-19T04:33:14;14.93;;;8.67;;
6135;SDS011;24008;42.664;23.372;2023-09-19T04:35:42;11.13;;;8.37;;
6135;SDS011;24008;42.664;23.372;2023-09-19T04:38:09;9.50;;;7.90;;
6135;SDS011;24008;42.664;23.372;2023-09-19T04:40:36;11.07;;;8.20;;
6135;SDS011;24008;42.664;23.372;2023-09-19T04:43:04;16.57;;;9.00;;
6135;SDS011;24008;42.664;23.372;2023-09-19T04:45:32;14.07;;;9.27;;
6135;SDS011;24008;42.664;23.372;2023-09-19T04:47:59;12.50;;;8.73;;
6135;SDS011;24008;42.664;23.372;2023-09-19T04:50:27;13.43;;;9.60;;
6135;SDS011;24008;42.664;23.372;2023-09-19T04:52:56;15.73;;;9.90;;
6135;SDS011;24008;42.664;23.372;2023-09-19T04:55:22;15.63;;;10.87;;
6135;SDS011;24008;42.664;23.372;2023-09-19T04:57:49;19.73;;;11.07;;
6135;SDS011;24008;42.664;23.372;2023-09-19T05:00:18;20.17;;;11.70;;
6135;SDS011;24008;42.664;23.372;2023-09-19T05:02:49;17.10;;;11.70;;
6135;SDS011;24008;42.664;23.372;2023-09-19T05:05:16;15.97;;;11.30;;
6135;SDS011;24008;42.664;23.372;2023-09-19T05:07:44;18.87;;;11.60;;
6135;SDS011;24008;42.664;23.372;2023-09-19T05:10:13;20.00;;;11.17;;
6135;SDS011;24008;42.664;23.372;2023-09-19T05:12:41;18.00;;;12.63;;
6135;SDS011;24008;42.664;23.372;2023-09-19T05:15:10;16.30;;;10.80;;
6135;SDS011;24008;42.664;23.372;2023-09-19T05:17:37;18.73;;;11.30;;
6135;SDS011;24008;42.664;23.372;2023-09-19T05:20:05;13.90;;;10.30;;
6135;SDS011;24008;42.664;23.372;2023-09-19T05:22:46;17.10;;;10.10;;
6135;SDS011;24008;42.664;23.372;2023-09-19T05:25:14;15.27;;;10.07;;
6135;SDS011;24008;42.664;23.372;2023-09-19T05:27:43;13.50;;;9.73;;
6135;SDS011;24008;42.664;23.372;2023-09-19T05:30:11;13.10;;;9.60;;
6135;SDS011;24008;42.664;23.372;2023-09-19T05:32:40;11.57;;;8.77;;
6135;SDS011;24008;42.664;23.372;2023-09-19T05:35:09;13.37;;;8.00;;
6135;SDS011;24008;42.664;23.372;2023-09-19T05:37:38;13.40;;;8.60;;
6135;SDS011;24008;42.664;23.372;2023-09-19T05:40:05;10.73;;;8.10;;
6135;SDS011;24008;42.664;23.372;2023-09-19T05:42:36;10.83;;;7.47;;
6135;SDS011;24008;42.664;23.372;2023-09-19T05:45:05;9.77;;;7.27;;
6135;SDS011;24008;42.664;23.372;2023-09-19T05:47:32;9.07;;;6.57;;
6135;SDS011;24008;42.664;23.372;2023-09-19T05:49:59;9.17;;;6.87;;
6135;SDS011;24008;42.664;23.372;2023-09-19T05:52:26;9.30;;;7.13;;
6135;SDS011;24008;42.664;23.372;2023-09-19T05:54:53;9.77;;;7.00;;
6135;SDS011;24008;42.664;23.372;2023-09-19T05:57:21;11.07;;;7.07;;
6135;SDS011;24008;42.664;23.372;2023-09-19T05:59:51;9.27;;;6.70;;
6135;SDS011;24008;42.664;23.372;2023-09-19T06:02:18;12.00;;;7.60;;
6135;SDS011;24008;42.664;23.372;2023-09-19T06:04:45;12.30;;;7.57;;
6135;SDS011;24008;42.664;23.372;2023-09-19T06:07:11;9.67;;;6.90;;
6135;SDS011;24008;42.664;23.372;2023-09-19T06:09:38;12.53;;;7.13;;
6135;SDS011;24008;42.664;23.372;2023-09-19T06:12:05;9.57;;;6.83;;
6135;SDS011;24008;42.664;23.372;2023-09-19T06:14:33;12.37;;;7.50;;
6135;SDS011;24008;42.664;23.372;2023-09-19T06:17:01;16.53;;;7.07;;
6135;SDS011;24008;42.664;23.372;2023-09-19T06:19:27;8.03;;;6.00;;
6135;SDS011;24008;42.664;23.372;2023-09-19T06:21:54;12.63;;;7.13;;
6135;SDS011;24008;42.664;23.372;2023-09-19T06:24:21;8.57;;;6.10;;
6135;SDS011;24008;42.664;23.372;2023-09-19T06:27:06;7.07;;;6.20;;
6135;SDS011;24008;42.664;23.372;2023-09-19T06:29:34;10.32;;;6.70;;
6135;SDS011;24008;42.664;23.372;2023-09-19T06:32:04;9.05;;;6.80;;
6135;SDS011;24008;42.664;23.372;2023-09-19T06:34:33;8.50;;;6.60;;
6135;SDS011;24008;42.664;23.372;2023-09-19T06:37:00;13.48;;;6.35;;
6135;SDS011;24008;42.664;23.372;2023-09-19T06:39:28;7.50;;;6.70;;
6135;SDS011;24008;42.664;23.372;2023-09-19T06:41:56;17.02;;;7.22;;
6135;SDS011;24008;42.664;23.372;2023-09-19T06:44:23;7.85;;;6.30;;
6135;SDS011;24008;42.664;23.372;2023-09-19T06:46:50;11.50;;;7.05;;
6135;SDS011;24008;42.664;23.372;2023-09-19T06:49:18;8.63;;;6.90;;
6135;SDS011;24008;42.664;23.372;2023-09-19T06:51:45;10.00;;;7.13;;
6135;SDS011;24008;42.664;23.372;2023-09-19T06:54:12;7.63;;;6.20;;
6135;SDS011;24008;42.664;23.372;2023-09-19T06:56:39;8.13;;;6.47;;
6135;SDS011;24008;42.664;23.372;2023-09-19T06:59:06;6.90;;;5.60;;
6135;SDS011;24008;42.664;23.372;2023-09-19T07:01:33;8.30;;;5.60;;
6135;SDS011;24008;42.664;23.372;2023-09-19T07:04:03;8.90;;;5.32;;
6135;SDS011;24008;42.664;23.372;2023-09-19T07:06:31;9.65;;;5.57;;
6135;SDS011;24008;42.664;23.372;2023-09-19T07:08:58;7.70;;;6.03;;
6135;SDS011;24008;42.664;23.372;2023-09-19T07:11:25;8.50;;;6.15;;
6135;SDS011;24008;42.664;23.372;2023-09-19T07:13:52;7.03;;;5.85;;
6135;SDS011;24008;42.664;23.372;2023-09-19T07:16:19;9.13;;;5.63;;
6135;SDS011;24008;42.664;23.372;2023-09-19T07:18:55;8.30;;;5.95;;
6135;SDS011;24008;42.664;23.372;2023-09-19T07:21:22;10.98;;;6.25;;
6135;SDS011;24008;42.664;23.372;2023-09-19T07:23:51;6.95;;;6.10;;
6135;SDS011;24008;42.664;23.372;2023-09-19T07:26:17;11.43;;;6.50;;
6135;SDS011;24008;42.664;23.372;2023-09-19T07:28:44;10.20;;;6.25;;
6135;SDS011;24008;42.664;23.372;2023-09-19T07:31:11;10.35;;;5.57;;
6135;SDS011;24008;42.664;23.372;2023-09-19T07:33:39;9.18;;;6.53;;
6135;SDS011;24008;42.664;23.372;2023-09-19T07:36:09;9.18;;;5.90;;
6135;SDS011;24008;42.664;23.372;2023-09-19T07:38:38;8.88;;;5.95;;
6135;SDS011;24008;42.664;23.372;2023-09-19T07:41:07;11.68;;;6.45;;
6135;SDS011;24008;42.664;23.372;2023-09-19T07:43:35;10.80;;;5.95;;
6135;SDS011;24008;42.664;23.372;2023-09-19T07:46:03;9.93;;;6.18;;
6135;SDS011;24008;42.664;23.372;2023-09-19T07:48:32;7.65;;;6.22;;
6135;SDS011;24008;42.664;23.372;2023-09-19T07:51:01;8.95;;;5.97;;
6135;SDS011;24008;42.664;23.372;2023-09-19T07:53:28;9.55;;;6.78;;
6135;SDS011;24008;42.664;23.372;2023-09-19T07:56:01;16.48;;;10.60;;
6135;SDS011;24008;42.664;23.372;2023-09-19T07:58:30;9.82;;;6.63;;
6135;SDS011;24008;42.664;23.372;2023-09-19T08:01:02;8.20;;;5.60;;
6135;SDS011;24008;42.664;23.372;2023-09-19T08:03:29;9.00;;;6.10;;
6135;SDS011;24008;42.664;23.372;2023-09-19T08:05:56;11.18;;;6.03;;
6135;SDS011;24008;42.664;23.372;2023-09-19T08:08:24;7.05;;;5.75;;
6135;SDS011;24008;42.664;23.372;2023-09-19T08:10:52;9.80;;;6.03;;
6135;SDS011;24008;42.664;23.372;2023-09-19T08:13:21;9.98;;;5.65;;
6135;SDS011;24008;42.664;23.372;2023-09-19T08:15:49;11.75;;;6.53;;
6135;SDS011;24008;42.664;23.372;2023-09-19T08:18:18;8.63;;;5.72;;
6135;SDS011;24008;42.664;23.372;2023-09-19T08:20:50;13.35;;;6.13;;
6135;SDS011;24008;42.664;23.372;2023-09-19T08:23:17;10.75;;;5.97;;
6135;SDS011;24008;42.664;23.372;2023-09-19T08:25:45;8.88;;;6.38;;
6135;SDS011;24008;42.664;23.372;2023-09-19T08:28:12;11.23;;;6.65;;
6135;SDS011;24008;42.664;23.372;2023-09-19T08:30:43;12.10;;;6.50;;
6135;SDS011;24008;42.664;23.372;2023-09-19T08:33:11;9.82;;;6.43;;
6135;SDS011;24008;42.664;23.372;2023-09-19T08:35:40;12.05;;;6.53;;
6135;SDS011;24008;42.664;23.372;2023-09-19T08:38:08;9.73;;;6.40;;
6135;SDS011;24008;42.664;23.372;2023-09-19T08:40:37;7.57;;;6.07;;
6135;SDS011;24008;42.664;23.372;2023-09-19T08:43:05;8.02;;;6.05;;
6135;SDS011;24008;42.664;23.372;2023-09-19T08:45:32;10.70;;;5.68;;
6135;SDS011;24008;42.664;23.372;2023-09-19T08:48:00;10.73;;;5.97;;
6135;SDS011;24008;42.664;23.372;2023-09-19T08:50:36;9.20;;;5.88;;
6135;SDS011;24008;42.664;23.372;2023-09-19T08:53:10;8.65;;;6.15;;
6135;SDS011;24008;42.664;23.372;2023-09-19T08:55:39;8.57;;;5.85;;
6135;SDS011;24008;42.664;23.372;2023-09-19T08:58:09;9.85;;;6.07;;
6135;SDS011;24008;42.664;23.372;2023-09-19T09:00:38;14.02;;;6.43;;
6135;SDS011;24008;42.664;23.372;2023-09-19T09:03:08;9.38;;;5.85;;
6135;SDS011;24008;42.664;23.372;2023-09-19T09:05:38;7.60;;;5.75;;
6135;SDS011;24008;42.664;23.372;2023-09-19T09:08:09;9.07;;;5.82;;
6135;SDS011;24008;42.664;23.372;2023-09-19T09:10:37;8.10;;;5.72;;
6135;SDS011;24008;42.664;23.372;2023-09-19T09:13:05;9.48;;;5.95;;
6135;SDS011;24008;42.664;23.372;2023-09-19T09:15:34;8.40;;;5.95;;
6135;SDS011;24008;42.664;23.372;2023-09-19T09:18:03;7.35;;;5.38;;
6135;SDS011;24008;42.664;23.372;2023-09-19T09:20:30;7.70;;;5.80;;
6135;SDS011;24008;42.664;23.372;2023-09-19T09:22:59;8.95;;;5.40;;
6135;SDS011;24008;42.664;23.372;2023-09-19T09:28:18;7.13;;;5.60;;
6135;SDS011;24008;42.664;23.372;2023-09-19T09:30:46;9.88;;;5.93;;
6135;SDS011;24008;42.664;23.372;2023-09-19T09:33:13;7.70;;;5.70;;
6135;SDS011;24008;42.664;23.372;2023-09-19T09:35:47;8.20;;;5.28;;
6135;SDS011;24008;42.664;23.372;2023-09-19T09:38:18;7.03;;;5.70;;
6135;SDS011;24008;42.664;23.372;2023-09-19T09:40:47;7.78;;;5.28;;
6135;SDS011;24008;42.664;23.372;2023-09-19T09:43:24;6.95;;;5.20;;
6135;SDS011;24008;42.664;23.372;2023-09-19T09:46:05;8.85;;;5.45;;
6135;SDS011;24008;42.664;23.372;2023-09-19T09:48:36;9.80;;;5.88;;
6135;SDS011;24008;42.664;23.372;2023-09-19T09:51:04;7.88;;;5.45;;
6135;SDS011;24008;42.664;23.372;2023-09-19T09:53:34;8.77;;;5.68;;
6135;SDS011;24008;42.664;23.372;2023-09-19T09:56:06;12.75;;;5.70;;
6135;SDS011;24008;42.664;23.372;2023-09-19T09:58:35;6.75;;;5.60;;
6135;SDS011;24008;42.664;23.372;2023-09-19T10:01:03;6.60;;;5.32;;
6135;SDS011;24008;42.664;23.372;2023-09-19T10:03:36;9.30;;;5.80;;
6135;SDS011;24008;42.664;23.372;2023-09-19T10:06:09;9.25;;;5.82;;
6135;SDS011;24008;42.664;23.372;2023-09-19T10:08:59;7.50;;;5.75;;
6135;SDS011;24008;42.664;23.372;2023-09-19T10:11:37;9.70;;;5.72;;
6135;SDS011;24008;42.664;23.372;2023-09-19T10:14:08;6.90;;;5.22;;
6135;SDS011;24008;42.664;23.372;2023-09-19T10:16:38;8.35;;;6.25;;
6135;SDS011;24008;42.664;23.372;2023-09-19T10:19:07;7.63;;;5.47;;
6135;SDS011;24008;42.664;23.372;2023-09-19T10:21:35;9.95;;;5.80;;
6135;SDS011;24008;42.664;23.372;2023-09-19T10:24:06;8.10;;;5.90;;
6135;SDS011;24008;42.664;23.372;2023-09-19T10:26:34;10.30;;;7.13;;
6135;SDS011;24008;42.664;23.372;2023-09-19T10:29:02;10.05;;;6.30;;
6135;SDS011;24008;42.664;23.372;2023-09-19T10:31:34;11.85;;;6.40;;
6135;SDS011;24008;42.664;23.372;2023-09-19T10:34:06;11.02;;;5.90;;
6135;SDS011;24008;42.664;23.372;2023-09-19T10:36:35;6.57;;;5.90;;
6135;SDS011;24008;42.664;23.372;2023-09-19T10:39:04;7.30;;;5.68;;
6135;SDS011;24008;42.664;23.372;2023-09-19T10:41:38;8.15;;;6.15;;
6135;SDS011;24008;42.664;23.372;2023-09-19T10:44:08;11.85;;;6.82;;
6135;SDS011;24008;42.664;23.372;2023-09-19T10:46:35;9.50;;;5.88;;
6135;SDS011;24008;42.664;23.372;2023-09-19T10:49:03;9.35;;;5.97;;
6135;SDS011;24008;42.664;23.372;2023-09-19T10:51:31;8.23;;;6.18;;
6135;SDS011;24008;42.664;23.372;2023-09-19T10:54:08;7.72;;;5.97;;
6135;SDS011;24008;42.664;23.372;2023-09-19T10:56:38;7.72;;;6.18;;
6135;SDS011;24008;42.664;23.372;2023-09-19T10:59:14;8.10;;;6.10;;
6135;SDS011;24008;42.664;23.372;2023-09-19T11:01:43;9.43;;;6.07;;
6135;SDS011;24008;42.664;23.372;2023-09-19T11:04:23;10.23;;;6.05;;
6135;SDS011;24008;42.664;23.372;2023-09-19T11:07:01;8.82;;;6.13;;
6135;SDS011;24008;42.664;23.372;2023-09-19T11:09:44;9.13;;;5.90;;
6135;SDS011;24008;42.664;23.372;2023-09-19T11:24:31;8.32;;;6.55;;
6135;SDS011;24008;42.664;23.372;2023-09-19T11:27:15;12.95;;;6.18;;
6135;SDS011;24008;42.664;23.372;2023-09-19T11:29:43;10.95;;;6.45;;
6135;SDS011;24008;42.664;23.372;2023-09-19T11:32:10;8.57;;;5.63;;
6135;SDS011;24008;42.664;23.372;2023-09-19T11:34:40;10.60;;;5.97;;
6135;SDS011;24008;42.664;23.372;2023-09-19T11:40:33;7.63;;;5.65;;
6135;SDS011;24008;42.664;23.372;2023-09-19T11:43:09;10.60;;;6.28;;
6135;SDS011;24008;42.664;23.372;2023-09-19T11:46:05;8.07;;;5.93;;
6135;SDS011;24008;42.664;23.372;2023-09-19T11:48:33;9.07;;;6.35;;
6135;SDS011;24008;42.664;23.372;2023-09-19T11:53:47;7.40;;;6.35;;
6135;SDS011;24008;42.664;23.372;2023-09-19T11:56:15;7.75;;;6.35;;
6135;SDS011;24008;42.664;23.372;2023-09-19T11:58:45;8.90;;;6.43;;
6135;SDS011;24008;42.664;23.372;2023-09-19T12:01:14;7.70;;;5.93;;
6135;SDS011;24008;42.664;23.372;2023-09-19T12:03:47;7.40;;;6.35;;
6135;SDS011;24008;42.664;23.372;2023-09-19T12:06:23;7.82;;;5.90;;
6135;SDS011;24008;42.664;23.372;2023-09-19T12:08:50;6.88;;;5.68;;
6135;SDS011;24008;42.664;23.372;2023-09-19T12:11:20;8.77;;;6.82;;
6135;SDS011;24008;42.664;23.372;2023-09-19T12:13:49;11.90;;;7.40;;
6135;SDS011;24008;42.664;23.372;2023-09-19T12:16:18;8.90;;;6.20;;
6135;SDS011;24008;42.664;23.372;2023-09-19T12:18:50;8.52;;;6.20;;
6135;SDS011;24008;42.664;23.372;2023-09-19T12:21:25;8.27;;;6.30;;
6135;SDS011;24008;42.664;23.372;2023-09-19T12:26:42;7.20;;;6.07;;
6135;SDS011;24008;42.664;23.372;2023-09-19T12:29:15;9.77;;;6.68;;
6135;SDS011;24008;42.664;23.372;2023-09-19T12:31:47;8.88;;;6.68;;
6135;SDS011;24008;42.664;23.372;2023-09-19T12:34:19;8.35;;;6.57;;
6135;SDS011;24008;42.664;23.372;2023-09-19T12:36:47;7.85;;;6.90;;
6135;SDS011;24008;42.664;23.372;2023-09-19T12:39:24;10.13;;;6.53;;
6135;SDS011;24008;42.664;23.372;2023-09-19T12:41:52;7.65;;;5.95;;
6135;SDS011;24008;42.664;23.372;2023-09-19T12:44:21;10.57;;;6.35;;
6135;SDS011;24008;42.664;23.372;2023-09-19T12:46:50;9.63;;;6.20;;
6135;SDS011;24008;42.664;23.372;2023-09-19T12:49:20;7.63;;;6.53;;
6135;SDS011;24008;42.664;23.372;2023-09-19T12:51:47;8.27;;;6.03;;
6135;SDS011;24008;42.664;23.372;2023-09-19T12:54:15;7.80;;;5.55;;
6135;SDS011;24008;42.664;23.372;2023-09-19T12:56:42;7.32;;;6.47;;
6135;SDS011;24008;42.664;23.372;2023-09-19T12:59:12;10.43;;;6.88;;
6135;SDS011;24008;42.664;23.372;2023-09-19T13:01:41;8.57;;;6.72;;
6135;SDS011;24008;42.664;23.372;2023-09-19T13:04:15;7.18;;;5.72;;
6135;SDS011;24008;42.664;23.372;2023-09-19T13:06:51;7.10;;;6.40;;
6135;SDS011;24008;42.664;23.372;2023-09-19T13:09:20;8.88;;;6.53;;
6135;SDS011;24008;42.664;23.372;2023-09-19T13:11:50;8.02;;;6.90;;
6135;SDS011;24008;42.664;23.372;2023-09-19T13:14:19;10.40;;;6.47;;
6135;SDS011;24008;42.664;23.372;2023-09-19T13:16:59;10.48;;;6.60;;
6135;SDS011;24008;42.664;23.372;2023-09-19T13:19:38;7.82;;;6.63;;
6135;SDS011;24008;42.664;23.372;2023-09-19T13:25:07;10.82;;;6.53;;
6135;SDS011;24008;42.664;23.372;2023-09-19T13:27:39;7.43;;;6.63;;
6135;SDS011;24008;42.664;23.372;2023-09-19T13:30:06;7.57;;;6.07;;
6135;SDS011;24008;42.664;23.372;2023-09-19T13:32:35;7.18;;;6.47;;
6135;SDS011;24008;42.664;23.372;2023-09-19T13:35:04;8.10;;;6.57;;
6135;SDS011;24008;42.664;23.372;2023-09-19T13:37:34;10.63;;;6.90;;
6135;SDS011;24008;42.664;23.372;2023-09-19T13:40:01;9.98;;;6.82;;
6135;SDS011;24008;42.664;23.372;2023-09-19T13:42:30;9.85;;;7.07;;
6135;SDS011;24008;42.664;23.372;2023-09-19T13:44:57;7.78;;;6.30;;
6135;SDS011;24008;42.664;23.372;2023-09-19T13:47:24;9.65;;;6.72;;
6135;SDS011;24008;42.664;23.372;2023-09-19T13:49:53;11.00;;;7.28;;
6135;SDS011;24008;42.664;23.372;2023-09-19T13:52:20;16.02;;;7.40;;
6135;SDS011;24008;42.664;23.372;2023-09-19T13:54:48;9.93;;;7.20;;
6135;SDS011;24008;42.664;23.372;2023-09-19T13:57:15;7.88;;;7.07;;
6135;SDS011;24008;42.664;23.372;2023-09-19T13:59:42;10.52;;;7.70;;
6135;SDS011;24008;42.664;23.372;2023-09-19T14:02:09;9.68;;;6.82;;
6135;SDS011;24008;42.664;23.372;2023-09-19T14:04:36;7.95;;;6.80;;
6135;SDS011;24008;42.664;23.372;2023-09-19T14:07:04;10.85;;;6.90;;
6135;SDS011;24008;42.664;23.372;2023-09-19T14:09:32;7.78;;;6.97;;
6135;SDS011;24008;42.664;23.372;2023-09-19T14:12:17;8.18;;;6.88;;
6135;SDS011;24008;42.664;23.372;2023-09-19T14:14:44;7.90;;;7.10;;
6135;SDS011;24008;42.664;23.372;2023-09-19T14:17:11;8.77;;;6.82;;
6135;SDS011;24008;42.664;23.372;2023-09-19T14:19:40;9.43;;;7.15;;
6135;SDS011;24008;42.664;23.372;2023-09-19T14:22:16;8.57;;;7.43;;
6135;SDS011;24008;42.664;23.372;2023-09-19T14:24:43;9.52;;;8.35;;
6135;SDS011;24008;42.664;23.372;2023-09-19T14:27:10;9.95;;;7.82;;
6135;SDS011;24008;42.664;23.372;2023-09-19T14:29:37;11.00;;;7.95;;
6135;SDS011;24008;42.664;23.372;2023-09-19T14:32:04;8.00;;;7.07;;
6135;SDS011;24008;42.664;23.372;2023-09-19T14:34:31;8.65;;;6.95;;
6135;SDS011;24008;42.664;23.372;2023-09-19T14:36:58;8.95;;;7.15;;
6135;SDS011;24008;42.664;23.372;2023-09-19T14:39:26;8.30;;;7.35;;
6135;SDS011;24008;42.664;23.372;2023-09-19T14:41:53;10.32;;;7.28;;
6135;SDS011;24008;42.664;23.372;2023-09-19T14:44:20;10.27;;;7.07;;
6135;SDS011;24008;42.664;23.372;2023-09-19T14:46:47;8.48;;;7.07;;
6135;SDS011;24008;42.664;23.372;2023-09-19T14:49:14;12.45;;;7.80;;
6135;SDS011;24008;42.664;23.372;2023-09-19T14:51:42;8.23;;;7.07;;
6135;SDS011;24008;42.664;23.372;2023-09-19T14:54:09;13.40;;;7.15;;
6135;SDS011;24008;42.664;23.372;2023-09-19T14:56:37;9.50;;;7.00;;
6135;SDS011;24008;42.664;23.372;2023-09-19T14:59:04;8.25;;;6.93;;
6135;SDS011;24008;42.664;23.372;2023-09-19T15:01:32;7.80;;;7.00;;
6135;SDS011;24008;42.664;23.372;2023-09-19T15:03:58;7.78;;;7.03;;
6135;SDS011;24008;42.664;23.372;2023-09-19T15:09:20;9.32;;;7.20;;
6135;SDS011;24008;42.664;23.372;2023-09-19T15:11:48;9.00;;;6.70;;
6135;SDS011;24008;42.664;23.372;2023-09-19T15:14:15;11.45;;;7.10;;
6135;SDS011;24008;42.664;23.372;2023-09-19T15:16:42;8.70;;;7.05;;
6135;SDS011;24008;42.664;23.372;2023-09-19T15:19:09;7.50;;;6.53;;
6135;SDS011;24008;42.664;23.372;2023-09-19T15:21:40;9.55;;;7.00;;
6135;SDS011;24008;42.664;23.372;2023-09-19T15:24:07;12.18;;;7.05;;
6135;SDS011;24008;42.664;23.372;2023-09-19T15:26:35;8.50;;;7.30;;
6135;SDS011;24008;42.664;23.372;2023-09-19T15:29:05;9.32;;;7.40;;